Locatie 51° 56′ 37″.87 NB – 05° 58’47”.70 OL

We konden geen weer-waarchuwingen ophalen. Ga rechtstreeks naar de Meteoalarm site : www.meteoalarm.eu en controleer daar .


Webcam1-NNO Meer informatie Webcam1-NNO


Webcam2-ZZO Meer informatie Webcam2-ZZO


Bezoek ook deze websites:

Template documentatie
en downloads

Weer Sluispark Leuven

Allesoversterrenkunde.nl

Luchtkwaliteit Beekenoord



METAR rapporten vliegvelden

   
EHVK - Volkel Rnlafb, Netherlands
Afstand tot: ZW 18 km
Gewijzigd: 19-08-2022 13:55
Bewolking  
Bewolking  
   Wind: ZW 16.7 km/h
Wind: ZW 16.7 km/h
Temperatuur: 23°C
Dauwpunt: 16°C
Vochtigheid: 65%
Barometer: 1014 hPa
Bewolking: Bewolking
Zicht: meer dan 10 km
Bewolking: Grotendeels bewolkt 2100 ft,
Bewolking 2400 ft
EHVK 191155Z AUTO 22009KT 180V310 9999 BKN021 OVC024 23/16 Q1014 WHT NOSIG
EDLV - Niederrhein, Germany
Afstand tot: ZO 25 km
Gewijzigd: 19-08-2022 13:50
Licht bewolkt  
Licht bewolkt  
   Wind: Westen 18.5 km/h
Wind: Westen 18.5 km/h
Temperatuur: 25°C
Dauwpunt: 16°C
Vochtigheid: 57%
Barometer: 1014 hPa
Bewolking: Licht bewolkt
Zicht: 9 km
Bewolking: Licht bewolkt 3200 ft
EDLV 191150Z 28010KT 250V330 9000 FEW032 25/16 Q1014
EHDL - Deelen Rnlafb, Netherlands
Afstand tot: N 35 km
Gewijzigd: 19-08-2022 13:55
Licht bewolkt  
Licht bewolkt  
   Wind: varieert 13 km/h
Wind: varieert 13 km/h
Temperatuur: 24°C
Dauwpunt: 15°C
Vochtigheid: 57%
Barometer: 1014 hPa
Bewolking: Licht bewolkt
Zicht: meer dan 10 km
Bewolking: Licht bewolkt 2900 ft
EHDL 191155Z AUTO VRB07KT 9999 FEW029 24/15 Q1014 BLU
EHEH - Eindhoven Rnlafb, Netherlands
Afstand tot: ZW 48 km
Gewijzigd: 19-08-2022 13:55
Bewolking  
Bewolking  
   Wind: ZW 11.1 km/h
Wind: ZW 11.1 km/h
Temperatuur: 22°C
Dauwpunt: 17°C
Vochtigheid: 73%
Barometer: 1015 hPa
Bewolking: Bewolking
Zicht: meer dan 10 km
Bewolking: Gedeeltelijk bewolkt 2200 ft,
Bewolking 2500 ft
EHEH 191155Z AUTO 23006KT 150V290 9999 SCT022 OVC025 22/17 Q1015 WHT TEMPO 28010G22KT 4500 SHRA RA SCT015 SCT025CB BKN030
EHGR - Gilze-Rijen Rnla, Netherlands
Afstand tot: WZW 70 km
Gewijzigd: 19-08-2022 13:55
Motregen, Regen, Bewolking  
Motregen, Regen, Bewolking  
   Wind: Zuiden 16.7 km/h
Wind: Zuiden 16.7 km/h
Temperatuur: 22°C
Dauwpunt: 18°C
Vochtigheid: 78%
Barometer: 1014 hPa
Bewolking: Bewolking
Zicht: 7 km
Bewolking: Gedeeltelijk bewolkt 1600 ft,
Grotendeels bewolkt 2000 ft,
Bewolking 2400 ft
EHGR 191155Z AUTO 19009KT 150V230 7000 DZRA SCT016 BKN020 OVC024 22/18 Q1014 WHT TEMPO 3000 SHRA RA SCT015 SCT020CB BKN025
EBBL - Kleine-Brogel(Ba, Belgium
Afstand tot: ZZW 71 km
Gewijzigd: 19-08-2022 13:55
Grotendeels bewolkt  
Grotendeels bewolkt  
   Wind: WZW 13 km/h
Wind: WZW 13 km/h
Temperatuur: 23°C
Dauwpunt: 16°C
Vochtigheid: 65%
Barometer: 1015 hPa
Bewolking: Grotendeels bewolkt
Zicht: meer dan 10 km
Bewolking: Grotendeels bewolkt 2800 ft
EBBL 191155Z 25007KT 9999 BKN028 23/16 Q1015 BLU BLU

Script ontwikkeld door  Saratoga-weather.org Aangepast voor de template door  Weerstation Leuven

U vindt ons ook hier:

Het Weer Aktueel

UK Metoffice

WeatherCloud

Weather Underground-IWESTE54

BNLWN

AWEKAS

Citizen Weather Observer Program (CWOP)

HAMweather, WeatherForYou, PWS Weather

weerspecialist

Apparatuur in gebruik:

Weerstation
Davis VP2

Weercomputer
Meteobridge Nano SD

Webleverancier
Strato

Davis VP2

Meteobridge Nano SD

Strato